SASA

Martin Miguel De Guemes International Airport

Salta, Argentina
TAF SASA 251100Z 2512/2612 36005KT 9999 SCT015 BKN025 TX27/2518Z TN14/2610Z BECMG 2512/2515 07005KT 4000 RA SCT010 OVC020
Issued Valid From Valid To
Sep-25 @ 11:00 UTC
(6 hours ago)
Sep-25 @ 12:00 UTC
(5 hours ago)
Sep-26 @ 12:00 UTC
(in 19 hours)
Sep-25 @ 12:00 to Sep-26 @ 12:00
TAF SASA 251100Z 2512/2612 36005KT 9999 SCT015 BKN025 TX27/2518Z TN14/2610Z
Wind Visibility Clouds
360° at 5 knots 10,000+ meters
  • Scattered at 1,500' AGL
  • Broken at 2,500' AGL
Becoming Sep-25 @ 12:00 to Sep-26 @ 12:00
BECMG 2512/2515 07005KT 4000 RA SCT010 OVC020
Wind Visibility Clouds Conditions
70° at 5 knots 4,007 meters
  • Scattered at 1,000' AGL
  • Overcast at 2,000' AGL
  • Rain
TAF SASA 251100Z 2512/2612 36005KT 9999 SCT015 BKN025 TX27/2518Z TN14/2610Z BECMG 2512/2515 07005KT 4000 RA SCT010 OVC020
Issued Sep-25 @ 11:00 UTC
(6 hours ago)
Valid From Sep-25 @ 12:00 UTC
(5 hours ago)
Valid To Sep-26 @ 12:00 UTC
(in 19 hours)
Sep-25 @ 12:00 - Sep-26 @ 12:00
Wind Visibility
360° at 5 knots 10,000+ meters
Clouds
  • Scattered at 1,500' AGL
  • Broken at 2,500' AGL
Becoming Sep-25 @ 12:00 - Sep-26 @ 12:00
Wind Visibility
70° at 5 knots 4,007 meters
Clouds
  • Scattered at 1,000' AGL
  • Overcast at 2,000' AGL
Conditions
  • Rain